Time,TemperatureF,DewpointF,PressureIn,WindDirection,WindDirectionDegrees,WindSpeedMPH,WindSpeedGustMPH,Humidity,HourlyPrecipIn,Conditions,Clouds,dailyrainin,SoftwareType,DateUTC
2013-07-23 00:01:00,69.5,70.0,29.82,East,82,2.0,4.0,100,0.00,,,0.00,weatherlink.com 1.10,2013-07-23 04:01:00,
2013-07-23 00:16:00,69.5,70.0,29.82,ESE,111,3.0,5.0,100,0.00,,,0.00,weatherlink.com 1.10,2013-07-23 04:16:00,
2013-07-23 00:31:00,69.5,70.0,29.81,East,93,3.0,6.0,100,0.00,,,0.00,weatherlink.com 1.10,2013-07-23 04:31:00,
2013-07-23 00:46:00,69.4,69.0,29.80,East,85,4.0,5.0,100,0.00,,,0.00,weatherlink.com 1.10,2013-07-23 04:46:00,
2013-07-23 01:01:00,69.3,69.0,29.79,East,84,4.0,5.0,100,0.00,,,0.00,weatherlink.com 1.10,2013-07-23 05:01:00,
2013-07-23 01:16:00,69.3,69.0,29.79,East,84,3.0,5.0,100,0.00,,,0.00,weatherlink.com 1.10,2013-07-23 05:16:00,
2013-07-23 01:31:00,69.1,69.0,29.78,East,85,3.0,5.0,100,0.00,,,0.00,weatherlink.com 1.10,2013-07-23 05:31:00,
2013-07-23 01:46:00,69.1,69.0,29.77,East,81,2.0,4.0,100,0.00,,,0.00,weatherlink.com 1.10,2013-07-23 05:46:00,
2013-07-23 02:01:00,69.1,69.0,29.77,East,80,2.0,5.0,100,0.00,,,0.00,weatherlink.com 1.10,2013-07-23 06:01:00,
2013-07-23 02:16:00,69.1,69.0,29.76,East,87,2.0,5.0,100,0.00,,,0.00,weatherlink.com 1.10,2013-07-23 06:16:00,
2013-07-23 02:31:00,69.0,69.0,29.75,East,84,4.0,6.0,100,0.00,,,0.00,weatherlink.com 1.10,2013-07-23 06:31:00,
2013-07-23 02:46:00,68.8,69.0,29.74,East,82,5.0,7.0,100,0.08,,,0.08,weatherlink.com 1.10,2013-07-23 06:46:00,
2013-07-23 03:01:00,68.9,69.0,29.73,NE,56,4.0,7.0,100,0.09,,,0.09,weatherlink.com 1.10,2013-07-23 07:01:00,
2013-07-23 03:16:00,69.0,69.0,29.73,East,93,3.0,7.0,100,0.09,,,0.09,weatherlink.com 1.10,2013-07-23 07:16:00,
2013-07-23 03:31:00,69.2,69.0,29.72,ENE,78,4.0,5.0,100,0.09,,,0.09,weatherlink.com 1.10,2013-07-23 07:31:00,
2013-07-23 03:46:00,69.4,69.0,29.72,ENE,78,4.0,6.0,100,0.00,,,0.09,weatherlink.com 1.10,2013-07-23 07:46:00,
2013-07-23 04:01:00,69.6,70.0,29.71,East,86,3.0,5.0,100,0.01,,,0.10,weatherlink.com 1.10,2013-07-23 08:01:00,
2013-07-23 04:31:00,69.6,70.0,29.70,East,100,3.0,5.0,100,0.01,,,0.10,weatherlink.com 1.10,2013-07-23 08:31:00,
2013-07-23 04:46:00,69.3,69.0,29.70,East,90,3.0,4.0,100,0.01,,,0.10,weatherlink.com 1.10,2013-07-23 08:46:00,
2013-07-23 05:01:00,69.2,69.0,29.69,East,89,4.0,4.0,100,0.00,,,0.10,weatherlink.com 1.10,2013-07-23 09:01:00,
2013-07-23 05:16:00,69.4,69.0,29.69,East,84,1.0,4.0,100,0.00,,,0.10,weatherlink.com 1.10,2013-07-23 09:16:00,
2013-07-23 05:31:00,-999.0,-99.9,29.69,North,-999,-999.0,-999.0,-999,0.00,,,0.10,weatherlink.com 1.10,2013-07-23 09:31:00,
2013-07-23 05:46:00,-999.0,-99.9,29.69,North,-999,-999.0,-999.0,-999,0.00,,,0.10,weatherlink.com 1.10,2013-07-23 09:46:00,
2013-07-23 06:01:00,-999.0,-99.9,29.69,North,-999,-999.0,-999.0,-999,0.00,,,0.10,weatherlink.com 1.10,2013-07-23 10:01:00,
2013-07-23 06:17:00,-999.0,-99.9,29.68,North,-999,-999.0,-999.0,-999,0.00,,,0.10,weatherlink.com 1.10,2013-07-23 10:17:00,
2013-07-23 06:32:00,-999.0,-99.9,29.68,North,-999,-999.0,-999.0,-999,0.00,,,0.10,weatherlink.com 1.10,2013-07-23 10:32:00,
2013-07-23 06:47:00,-999.0,-99.9,29.67,North,-999,-999.0,-999.0,-999,0.00,,,0.10,weatherlink.com 1.10,2013-07-23 10:47:00,
2013-07-23 07:02:00,-999.0,-99.9,29.67,North,-999,-999.0,-999.0,-999,0.00,,,0.10,weatherlink.com 1.10,2013-07-23 11:02:00,
2013-07-23 07:17:00,-999.0,-99.9,29.66,North,-999,-999.0,-999.0,-999,0.00,,,0.10,weatherlink.com 1.10,2013-07-23 11:17:00,
2013-07-23 07:32:00,-999.0,-99.9,29.66,North,-999,-999.0,-999.0,-999,0.00,,,0.10,weatherlink.com 1.10,2013-07-23 11:32:00,
2013-07-23 07:47:00,-999.0,-99.9,29.66,North,-999,-999.0,-999.0,-999,0.00,,,0.10,weatherlink.com 1.10,2013-07-23 11:47:00,
2013-07-23 08:02:00,-999.0,-99.9,29.66,North,-999,-999.0,-999.0,-999,0.00,,,0.10,weatherlink.com 1.10,2013-07-23 12:02:00,
2013-07-23 08:17:00,-999.0,-99.9,29.65,North,-999,-999.0,-999.0,-999,0.00,,,0.10,weatherlink.com 1.10,2013-07-23 12:17:00,
2013-07-23 08:32:00,-999.0,-99.9,29.65,North,-999,-999.0,-999.0,-999,0.00,,,0.10,weatherlink.com 1.10,2013-07-23 12:32:00,
2013-07-23 08:47:00,-999.0,-99.9,29.65,North,-999,-999.0,-999.0,-999,0.00,,,0.10,weatherlink.com 1.10,2013-07-23 12:47:00,
2013-07-23 09:02:00,-999.0,-99.9,29.64,North,-999,-999.0,-999.0,-999,0.00,,,0.10,weatherlink.com 1.10,2013-07-23 13:02:00,
2013-07-23 09:17:00,-999.0,-99.9,29.63,North,-999,-999.0,-999.0,-999,0.00,,,0.10,weatherlink.com 1.10,2013-07-23 13:17:00,
2013-07-23 09:32:00,-999.0,-99.9,29.63,North,-999,-999.0,-999.0,-999,0.00,,,0.10,weatherlink.com 1.10,2013-07-23 13:32:00,
2013-07-23 09:48:00,-999.0,-99.9,29.62,North,-999,-999.0,-999.0,-999,0.00,,,0.10,weatherlink.com 1.10,2013-07-23 13:48:00,
2013-07-23 10:03:00,-999.0,-99.9,29.62,North,-999,-999.0,-999.0,-999,0.00,,,0.10,weatherlink.com 1.10,2013-07-23 14:03:00,
2013-07-23 10:18:00,72.6,72.0,29.62,SSE,166,1.0,3.0,99,0.00,,,0.10,weatherlink.com 1.10,2013-07-23 14:18:00,
2013-07-23 10:33:00,73.2,73.0,29.62,SE,146,1.0,3.0,100,0.00,,,0.10,weatherlink.com 1.10,2013-07-23 14:33:00,
2013-07-23 10:48:00,72.9,73.0,29.62,SSE,150,2.0,2.0,100,0.00,,,0.10,weatherlink.com 1.10,2013-07-23 14:48:00,
2013-07-23 11:03:00,73.9,74.0,29.62,SSE,157,3.0,3.0,100,0.00,,,0.10,weatherlink.com 1.10,2013-07-23 15:03:00,
2013-07-23 11:18:00,74.4,74.0,29.61,SSE,155,3.0,6.0,99,0.00,,,0.10,weatherlink.com 1.10,2013-07-23 15:18:00,
2013-07-23 11:33:00,74.1,74.0,29.61,South,183,5.0,5.0,99,0.00,,,0.10,weatherlink.com 1.10,2013-07-23 15:33:00,
2013-07-23 11:48:00,75.1,75.0,29.61,SSE,159,3.0,6.0,99,0.00,,,0.10,weatherlink.com 1.10,2013-07-23 15:48:00,
2013-07-23 12:03:00,75.3,75.0,29.60,SSW,208,3.0,6.0,99,0.00,,,0.10,weatherlink.com 1.10,2013-07-23 16:03:00,
2013-07-23 12:33:00,76.3,76.0,29.59,South,190,5.0,6.0,99,0.00,,,0.10,weatherlink.com 1.10,2013-07-23 16:33:00,
2013-07-23 12:48:00,76.4,76.0,29.59,South,179,3.0,6.0,97,0.00,,,0.10,weatherlink.com 1.10,2013-07-23 16:48:00,
2013-07-23 13:03:00,77.1,76.0,29.59,SSW,203,3.0,4.0,97,0.00,,,0.10,weatherlink.com 1.10,2013-07-23 17:03:00,
2013-07-23 13:18:00,77.0,76.0,29.59,SW,228,3.0,5.0,96,0.00,,,0.10,weatherlink.com 1.10,2013-07-23 17:18:00,
2013-07-23 13:33:00,76.2,75.0,29.58,SSW,203,1.0,7.0,95,0.00,,,0.10,weatherlink.com 1.10,2013-07-23 17:33:00,
2013-07-23 14:03:00,78.7,76.0,29.57,SSW,200,2.0,6.0,91,0.00,,,0.10,weatherlink.com 1.10,2013-07-23 18:03:00,
2013-07-23 14:18:00,79.8,76.0,29.57,SSW,193,3.0,7.0,88,0.00,,,0.10,weatherlink.com 1.10,2013-07-23 18:18:00,
2013-07-23 14:33:00,80.1,76.0,29.57,SSW,197,2.0,6.0,86,0.00,,,0.10,weatherlink.com 1.10,2013-07-23 18:33:00,
2013-07-23 14:48:00,80.2,75.0,29.56,WSW,250,3.0,5.0,85,0.00,,,0.10,weatherlink.com 1.10,2013-07-23 18:48:00,
2013-07-23 15:03:00,79.9,75.0,29.56,SSW,203,2.0,4.0,85,0.00,,,0.10,weatherlink.com 1.10,2013-07-23 19:03:00,
2013-07-23 15:18:00,79.5,74.0,29.56,SW,215,2.0,4.0,84,0.00,,,0.10,weatherlink.com 1.10,2013-07-23 19:18:00,
2013-07-23 15:33:00,78.2,73.0,29.56,SSE,162,1.0,4.0,85,0.00,,,0.10,weatherlink.com 1.10,2013-07-23 19:33:00,
2013-07-23 15:48:00,78.4,74.0,29.56,South,191,3.0,6.0,85,0.00,,,0.10,weatherlink.com 1.10,2013-07-23 19:48:00,
2013-07-23 16:03:00,77.5,73.0,29.56,SW,226,0.0,5.0,86,0.00,,,0.10,weatherlink.com 1.10,2013-07-23 20:03:00,
2013-07-23 16:33:00,75.2,72.0,29.56,WSW,248,2.0,4.0,90,0.00,,,0.10,weatherlink.com 1.10,2013-07-23 20:33:00,
2013-07-23 16:48:00,76.1,72.0,29.56,SW,222,3.0,4.0,88,0.00,,,0.10,weatherlink.com 1.10,2013-07-23 20:48:00,
2013-07-23 17:18:00,77.9,74.0,29.55,WSW,239,2.0,6.0,86,0.00,,,0.10,weatherlink.com 1.10,2013-07-23 21:18:00,
2013-07-23 17:48:00,75.3,72.0,29.54,South,187,0.0,5.0,90,0.00,,,0.10,weatherlink.com 1.10,2013-07-23 21:48:00,
2013-07-23 18:03:00,77.1,74.0,29.54,SSW,208,1.0,4.0,89,0.00,,,0.10,weatherlink.com 1.10,2013-07-23 22:03:00,
2013-07-23 18:18:00,77.1,73.0,29.55,SSW,195,2.0,4.0,88,0.00,,,0.10,weatherlink.com 1.10,2013-07-23 22:18:00,
2013-07-23 18:33:00,77.8,74.0,29.56,WSW,250,2.0,5.0,88,0.00,,,0.10,weatherlink.com 1.10,2013-07-23 22:33:00,
2013-07-23 18:48:00,75.9,73.0,29.56,WSW,256,0.0,6.0,91,0.00,,,0.10,weatherlink.com 1.10,2013-07-23 22:48:00,
2013-07-23 19:03:00,76.8,74.0,29.56,SW,229,0.0,4.0,92,0.00,,,0.10,weatherlink.com 1.10,2013-07-23 23:03:00,
2013-07-23 19:18:00,76.5,73.0,29.57,West,260,2.0,5.0,89,0.00,,,0.10,weatherlink.com 1.10,2013-07-23 23:18:00,
2013-07-23 19:34:00,75.3,71.0,29.57,WSW,248,1.0,5.0,87,0.00,,,0.10,weatherlink.com 1.10,2013-07-23 23:34:00,
2013-07-23 19:49:00,75.0,71.0,29.58,WSW,238,1.0,4.0,88,0.00,,,0.10,weatherlink.com 1.10,2013-07-23 23:49:00,
2013-07-23 20:04:00,75.1,71.0,29.57,WSW,243,3.0,7.0,87,0.00,,,0.10,weatherlink.com 1.10,2013-07-24 00:04:00,
2013-07-23 20:19:00,74.3,71.0,29.57,WSW,242,2.0,6.0,89,0.00,,,0.10,weatherlink.com 1.10,2013-07-24 00:19:00,
2013-07-23 20:34:00,73.1,71.0,29.58,SSW,203,0.0,5.0,92,0.00,,,0.10,weatherlink.com 1.10,2013-07-24 00:34:00,
2013-07-23 20:49:00,72.6,71.0,29.57,SW,232,0.0,5.0,93,0.00,,,0.10,weatherlink.com 1.10,2013-07-24 00:49:00,
2013-07-23 21:19:00,72.4,71.0,29.58,SW,215,0.0,1.0,94,0.00,,,0.10,weatherlink.com 1.10,2013-07-24 01:19:00,
2013-07-23 21:49:00,71.1,70.0,29.59,SW,224,0.0,2.0,95,0.00,,,0.10,weatherlink.com 1.10,2013-07-24 01:49:00,
2013-07-23 22:04:00,70.6,70.0,29.58,SW,232,1.0,2.0,96,0.00,,,0.10,weatherlink.com 1.10,2013-07-24 02:04:00,
2013-07-23 22:19:00,70.4,69.0,29.59,SW,229,0.0,0.0,96,0.00,,,0.10,weatherlink.com 1.10,2013-07-24 02:19:00,
2013-07-23 22:34:00,70.7,70.0,29.58,SW,232,0.0,2.0,97,0.00,,,0.10,weatherlink.com 1.10,2013-07-24 02:34:00,
2013-07-23 22:49:00,71.1,70.0,29.58,SW,222,0.0,1.0,97,0.00,,,0.10,weatherlink.com 1.10,2013-07-24 02:49:00,
2013-07-23 23:04:00,70.6,70.0,29.58,SSW,200,0.0,1.0,96,0.00,,,0.10,weatherlink.com 1.10,2013-07-24 03:04:00,
2013-07-23 23:19:00,70.1,69.0,29.59,SSW,200,1.0,2.0,97,0.00,,,0.10,weatherlink.com 1.10,2013-07-24 03:19:00,
2013-07-23 23:34:00,70.1,69.0,29.59,SSW,212,0.0,2.0,97,0.00,,,0.10,weatherlink.com 1.10,2013-07-24 03:34:00,